createdAt,value
2018-07-02T00:00:09.156Z,0.70
2018-07-02T00:02:37.447Z,1.00
2018-07-02T00:05:06.008Z,0.73
2018-07-02T00:07:34.217Z,0.80
2018-07-02T00:10:02.504Z,1.17
2018-07-02T00:12:30.736Z,0.90
2018-07-02T00:14:58.935Z,0.80
2018-07-02T00:17:27.252Z,0.97
2018-07-02T00:19:55.459Z,1.07
2018-07-02T00:22:23.742Z,0.93
2018-07-02T00:24:51.952Z,0.70
2018-07-02T00:27:20.132Z,0.80
2018-07-02T00:29:48.317Z,0.90
2018-07-02T00:32:16.551Z,0.70
2018-07-02T00:34:44.734Z,0.90
2018-07-02T00:37:12.903Z,0.90
2018-07-02T00:39:41.118Z,1.00
2018-07-02T00:42:09.389Z,0.63
2018-07-02T00:44:37.589Z,0.70
2018-07-02T00:47:05.747Z,0.70
2018-07-02T00:49:33.871Z,0.63
2018-07-02T00:52:02.078Z,0.90
2018-07-02T00:54:30.279Z,1.00
2018-07-02T00:56:59.110Z,0.73
2018-07-02T00:59:27.347Z,0.90
2018-07-02T01:01:56.626Z,0.93
2018-07-02T01:04:24.775Z,0.70
2018-07-02T01:06:53.411Z,0.80
2018-07-02T01:09:21.567Z,0.83
2018-07-02T01:11:50.011Z,0.70
2018-07-02T01:14:18.684Z,0.60
2018-07-02T01:16:47.232Z,0.70
2018-07-02T01:19:15.444Z,0.67
2018-07-02T01:21:43.895Z,0.90
2018-07-02T01:24:12.204Z,0.87
2018-07-02T01:26:40.438Z,0.93
2018-07-02T01:29:09.000Z,1.00
2018-07-02T01:31:37.197Z,0.70
2018-07-02T01:34:05.698Z,0.90
2018-07-02T01:36:34.042Z,0.60
2018-07-02T01:39:03.167Z,0.50
2018-07-02T01:41:31.704Z,0.50
2018-07-02T01:43:59.872Z,0.70
2018-07-02T01:46:27.989Z,0.80
2018-07-02T01:48:56.083Z,0.83
2018-07-02T01:51:24.301Z,0.93
2018-07-02T01:53:52.546Z,0.70
2018-07-02T01:56:21.229Z,0.90
2018-07-02T01:58:49.420Z,0.67
2018-07-02T02:01:17.633Z,0.70
2018-07-02T02:03:45.900Z,0.90
2018-07-02T02:06:14.234Z,0.80
2018-07-02T02:08:42.674Z,1.00
2018-07-02T02:11:11.050Z,1.07
2018-07-02T02:13:39.711Z,0.70
2018-07-02T02:16:07.853Z,0.90
2018-07-02T02:18:36.459Z,0.60
2018-07-02T02:21:05.001Z,1.07
2018-07-02T02:23:33.255Z,0.80
2018-07-02T02:26:01.571Z,0.70
2018-07-02T02:28:30.294Z,1.00
2018-07-02T02:30:58.486Z,1.10
2018-07-02T02:33:26.663Z,1.07
2018-07-02T02:35:54.843Z,0.60
2018-07-02T02:38:23.233Z,0.73
2018-07-02T02:40:51.565Z,0.80
2018-07-02T02:43:19.747Z,0.80
2018-07-02T02:45:48.110Z,0.80
2018-07-02T02:48:16.388Z,0.90
2018-07-02T02:50:44.952Z,0.80
2018-07-02T02:53:13.216Z,1.23
2018-07-02T02:55:41.444Z,1.07
2018-07-02T02:58:09.865Z,1.03
2018-07-02T03:00:38.137Z,0.90
2018-07-02T03:03:06.356Z,1.00
2018-07-02T03:05:34.756Z,1.00
2018-07-02T03:08:03.852Z,0.90
2018-07-02T03:10:32.094Z,1.00
2018-07-02T03:13:00.297Z,1.20
2018-07-02T03:15:28.513Z,1.27
2018-07-02T03:17:56.681Z,1.27
2018-07-02T03:20:24.986Z,1.10
2018-07-02T03:22:53.118Z,1.27
2018-07-02T03:25:21.363Z,1.23
2018-07-02T03:27:49.644Z,1.23
2018-07-02T03:30:18.382Z,1.60
2018-07-02T03:32:46.930Z,1.30
2018-07-02T03:35:15.189Z,1.30
2018-07-02T03:37:43.610Z,1.70
2018-07-02T03:40:11.749Z,1.33
2018-07-02T03:42:39.938Z,1.60
2018-07-02T03:45:08.173Z,1.60
2018-07-02T03:47:36.325Z,1.53
2018-07-02T03:50:04.791Z,1.70
2018-07-02T03:52:33.188Z,1.90
2018-07-02T03:55:01.608Z,1.77
2018-07-02T03:57:30.211Z,1.80
2018-07-02T03:59:58.483Z,1.67
2018-07-02T04:02:26.789Z,1.80
2018-07-02T04:04:55.010Z,1.70
2018-07-02T04:07:23.296Z,1.77
2018-07-02T04:09:51.474Z,1.73
2018-07-02T04:12:19.751Z,1.80
2018-07-02T04:14:47.996Z,1.77
2018-07-02T04:17:16.494Z,1.37
2018-07-02T04:19:44.683Z,1.50
2018-07-02T04:22:13.010Z,1.80
2018-07-02T04:24:41.496Z,1.43
2018-07-02T04:27:09.765Z,1.70
2018-07-02T04:29:38.070Z,1.83
2018-07-02T04:32:06.662Z,1.70
2018-07-02T04:34:34.933Z,1.80
2018-07-02T04:37:03.187Z,1.70
2018-07-02T04:39:31.528Z,1.57
2018-07-02T04:41:59.761Z,1.60
2018-07-02T04:44:27.959Z,1.60
2018-07-02T04:46:56.311Z,1.70
2018-07-02T04:49:24.494Z,1.63
2018-07-02T04:51:53.046Z,1.73
2018-07-02T04:54:22.466Z,1.80
2018-07-02T04:56:50.261Z,1.70
2018-07-02T04:59:18.532Z,1.70
2018-07-02T05:01:46.731Z,1.97
2018-07-02T05:04:15.042Z,1.57
2018-07-02T05:06:43.259Z,1.30
2018-07-02T05:09:11.522Z,1.40
2018-07-02T05:11:39.633Z,1.63
2018-07-02T05:14:07.798Z,1.57
2018-07-02T05:16:36.877Z,1.50
2018-07-02T05:19:05.036Z,1.70
2018-07-02T05:21:33.399Z,1.60
2018-07-02T05:24:01.566Z,1.70
2018-07-02T05:26:29.787Z,1.93
2018-07-02T05:28:58.404Z,1.53
2018-07-02T05:31:26.812Z,1.70
2018-07-02T05:33:55.033Z,1.50
2018-07-02T05:36:23.245Z,1.30
2018-07-02T05:38:51.506Z,1.27
2018-07-02T05:41:19.892Z,1.77
2018-07-02T05:43:48.171Z,1.60
2018-07-02T05:46:16.383Z,1.57
2018-07-02T05:48:44.689Z,1.70
2018-07-02T05:51:12.857Z,1.60
2018-07-02T05:53:40.975Z,1.60
2018-07-02T05:56:09.205Z,1.50
2018-07-02T05:58:37.387Z,1.73
2018-07-02T06:01:05.626Z,1.70
2018-07-02T06:03:33.913Z,1.47
2018-07-02T06:06:02.164Z,1.60
2018-07-02T06:08:30.338Z,1.70
2018-07-02T06:10:58.462Z,1.47
2018-07-02T06:13:27.518Z,1.47
2018-07-02T06:15:56.275Z,1.90
2018-07-02T06:18:24.715Z,1.70
2018-07-02T06:20:53.580Z,1.20
2018-07-02T06:23:21.972Z,1.30
2018-07-02T06:25:50.355Z,1.57
2018-07-02T06:28:18.618Z,1.37
2018-07-02T06:30:46.725Z,1.27
2018-07-02T06:33:15.614Z,1.27
2018-07-02T06:35:43.821Z,1.73
2018-07-02T06:38:12.687Z,1.70
2018-07-02T06:40:41.098Z,1.70
2018-07-02T06:43:09.382Z,1.60
2018-07-02T06:45:37.509Z,1.23
2018-07-02T06:48:05.864Z,1.70
2018-07-02T06:50:34.461Z,1.47
2018-07-02T06:53:02.717Z,1.70
2018-07-02T06:55:30.985Z,1.07
2018-07-02T06:57:59.201Z,1.13
2018-07-02T07:00:28.107Z,1.83
2018-07-02T07:02:56.722Z,1.40
2018-07-02T07:05:25.005Z,1.47
2018-07-02T07:07:53.426Z,1.70
2018-07-02T07:10:21.684Z,1.43
2018-07-02T07:12:50.373Z,1.43
2018-07-02T07:15:18.847Z,1.60
2018-07-02T07:17:47.155Z,1.40
2018-07-02T07:20:15.396Z,1.57
2018-07-02T07:22:43.610Z,1.70
2018-07-02T07:25:12.058Z,1.53
2018-07-02T07:27:40.360Z,1.47
2018-07-02T07:30:08.581Z,1.50
2018-07-02T07:32:36.823Z,1.30
2018-07-02T07:35:05.224Z,1.33
2018-07-02T07:37:33.566Z,1.50
2018-07-02T07:40:01.863Z,0.80
2018-07-02T07:42:34.226Z,0.97
2018-07-02T07:45:03.140Z,1.10
2018-07-02T07:47:31.423Z,1.23
2018-07-02T07:49:59.835Z,1.03
2018-07-02T07:52:28.424Z,1.20
2018-07-02T07:54:56.938Z,1.30
2018-07-02T07:57:25.177Z,0.90
2018-07-02T07:59:53.512Z,1.17
2018-07-02T08:02:21.891Z,1.27
2018-07-02T08:04:50.306Z,1.20
2018-07-02T08:07:20.385Z,0.90
2018-07-02T08:09:48.558Z,1.10
2018-07-02T08:12:16.789Z,1.00
2018-07-02T08:14:45.169Z,1.10
2018-07-02T08:17:13.418Z,1.50
2018-07-02T08:19:41.592Z,1.20
2018-07-02T08:22:10.126Z,1.20
2018-07-02T08:24:38.239Z,1.20
2018-07-02T08:27:06.627Z,1.13
2018-07-02T08:29:34.769Z,1.00
2018-07-02T08:32:02.922Z,1.10
2018-07-02T08:34:31.197Z,1.13
2018-07-02T08:36:59.526Z,1.00
2018-07-02T08:39:37.100Z,1.03
2018-07-02T08:42:05.454Z,1.00
2018-07-02T08:44:33.568Z,1.37
2018-07-02T08:47:02.115Z,0.67
2018-07-02T08:49:30.222Z,0.90
2018-07-02T08:51:58.394Z,0.93
2018-07-02T08:54:26.813Z,1.00
2018-07-02T08:56:54.950Z,1.20
2018-07-02T08:59:23.118Z,0.90
2018-07-02T09:01:51.363Z,0.67
2018-07-02T09:04:19.642Z,0.73
2018-07-02T09:06:48.097Z,0.80
2018-07-02T09:09:16.342Z,0.70
2018-07-02T09:11:44.667Z,0.77
2018-07-02T09:14:12.986Z,0.80
2018-07-02T09:16:41.186Z,1.03
2018-07-02T09:19:09.406Z,0.73
2018-07-02T09:21:37.879Z,0.60
2018-07-02T09:24:06.384Z,0.80
2018-07-02T09:26:35.176Z,0.60
2018-07-02T09:29:04.331Z,0.70
2018-07-02T09:31:32.688Z,0.97
2018-07-02T09:34:01.394Z,0.97
2018-07-02T09:36:30.058Z,0.77
2018-07-02T09:38:58.625Z,0.80
2018-07-02T09:41:26.900Z,0.87
2018-07-02T09:43:55.703Z,1.20
2018-07-02T09:46:23.882Z,0.50
2018-07-02T09:48:52.181Z,0.70
2018-07-02T09:51:20.366Z,0.60
2018-07-02T09:53:48.608Z,0.70
2018-07-02T09:56:16.677Z,1.10
2018-07-02T09:58:52.034Z,0.73
2018-07-02T10:01:20.361Z,1.07
2018-07-02T10:03:48.561Z,0.70
2018-07-02T10:06:16.884Z,0.80
2018-07-02T10:08:45.913Z,1.00
2018-07-02T10:11:14.182Z,0.87
2018-07-02T10:13:42.323Z,0.77
2018-07-02T10:16:10.473Z,0.70
2018-07-02T10:18:38.588Z,0.70
2018-07-02T10:21:07.026Z,0.70
2018-07-02T10:23:37.336Z,0.80
2018-07-02T10:26:03.616Z,0.63
2018-07-02T10:28:31.987Z,0.60
2018-07-02T10:31:00.320Z,0.93
2018-07-02T10:33:28.450Z,0.90
2018-07-02T10:35:56.762Z,0.77
2018-07-02T10:38:25.799Z,0.40
2018-07-02T10:40:54.035Z,0.73
2018-07-02T10:43:22.516Z,0.60
2018-07-02T10:45:51.621Z,0.70
2018-07-02T10:48:19.819Z,0.60
2018-07-02T10:50:48.393Z,0.80
2018-07-02T10:53:16.651Z,0.90
2018-07-02T10:55:45.206Z,0.73
2018-07-02T10:58:14.354Z,2.97
2018-07-02T11:00:42.624Z,4.17
2018-07-02T11:03:11.285Z,0.80
2018-07-02T11:05:39.635Z,0.70
2018-07-02T11:08:07.923Z,0.60
2018-07-02T11:10:36.215Z,0.70
2018-07-02T11:13:09.320Z,0.60
2018-07-02T11:15:38.155Z,0.60
2018-07-02T11:18:06.702Z,0.97
2018-07-02T11:20:35.163Z,0.73
2018-07-02T11:23:03.401Z,0.67
2018-07-02T11:25:31.604Z,0.60
2018-07-02T11:27:59.737Z,0.70
2018-07-02T11:30:27.925Z,0.57
2018-07-02T11:32:56.306Z,0.60
2018-07-02T11:35:24.451Z,0.90
2018-07-02T11:37:52.701Z,0.70
2018-07-02T11:40:20.945Z,0.70
2018-07-02T11:42:49.150Z,0.90
2018-07-02T11:45:17.339Z,0.40
2018-07-02T11:47:45.700Z,0.90
2018-07-02T11:50:13.970Z,0.80
2018-07-02T11:52:42.085Z,0.57
2018-07-02T11:55:10.255Z,0.97
2018-07-02T11:57:38.537Z,0.50
2018-07-02T12:00:08.260Z,0.70
2018-07-02T12:02:36.625Z,0.80
2018-07-02T12:05:05.268Z,0.50
2018-07-02T12:07:33.497Z,0.67
2018-07-02T12:10:02.415Z,0.80
2018-07-02T12:12:31.140Z,0.70
2018-07-02T12:14:59.410Z,0.90
2018-07-02T12:17:27.758Z,0.77
2018-07-02T12:19:55.991Z,0.93
2018-07-02T12:22:24.510Z,0.70
2018-07-02T12:24:53.103Z,0.70
2018-07-02T12:27:21.394Z,0.70
2018-07-02T12:29:49.815Z,0.80
2018-07-02T12:32:18.113Z,0.83
2018-07-02T12:34:46.354Z,0.87
2018-07-02T12:37:14.454Z,0.80
2018-07-02T12:39:42.975Z,1.13
2018-07-02T12:42:11.192Z,0.60
2018-07-02T12:44:39.452Z,1.03
2018-07-02T12:47:08.686Z,0.87
2018-07-02T12:49:36.918Z,1.03
2018-07-02T12:52:05.178Z,0.83
2018-07-02T12:54:33.386Z,0.83
2018-07-02T12:57:03.045Z,0.50
2018-07-02T12:59:31.573Z,0.90
2018-07-02T13:01:59.683Z,0.90
2018-07-02T13:04:28.300Z,0.73
2018-07-02T13:06:56.722Z,0.80
2018-07-02T13:09:25.009Z,0.63
2018-07-02T13:11:53.267Z,0.67
2018-07-02T13:14:21.650Z,0.60
2018-07-02T13:16:50.394Z,1.00
2018-07-02T13:19:19.202Z,0.97
2018-07-02T13:21:47.406Z,0.83
2018-07-02T13:24:15.748Z,0.87
2018-07-02T13:26:44.050Z,1.07
2018-07-02T13:29:12.519Z,0.90
2018-07-02T13:31:42.723Z,0.77
2018-07-02T13:34:11.178Z,0.90
2018-07-02T13:36:40.199Z,0.73
2018-07-02T13:39:10.184Z,0.90
2018-07-02T13:41:39.140Z,0.80
2018-07-02T13:44:07.805Z,1.30
2018-07-02T13:46:36.325Z,1.10
2018-07-02T13:49:05.603Z,0.77
2018-07-02T13:51:35.257Z,1.17
2018-07-02T13:54:03.563Z,1.40
2018-07-02T13:56:33.645Z,0.97
2018-07-02T13:59:03.025Z,0.90
2018-07-02T14:01:32.154Z,0.90
2018-07-02T14:04:00.436Z,1.10
2018-07-02T14:06:28.928Z,0.90
2018-07-02T14:08:57.542Z,1.40
2018-07-02T14:11:25.977Z,0.80
2018-07-02T14:13:54.602Z,0.90
2018-07-02T14:16:23.034Z,0.87
2018-07-02T14:18:52.501Z,0.87
2018-07-02T14:21:20.967Z,0.70
2018-07-02T14:23:49.981Z,0.90
2018-07-02T14:26:18.999Z,0.90
2018-07-02T14:28:47.797Z,0.80
2018-07-02T14:31:16.375Z,1.20
2018-07-02T14:33:44.855Z,0.70
2018-07-02T14:36:13.609Z,0.77
2018-07-02T14:38:41.960Z,0.70
2018-07-02T14:41:10.645Z,0.83
2018-07-02T14:43:39.205Z,0.77
2018-07-02T14:46:07.509Z,0.70
2018-07-02T14:48:36.501Z,0.73
2018-07-02T14:51:04.897Z,0.87
2018-07-02T14:53:34.065Z,0.70
2018-07-02T14:56:02.534Z,0.90
2018-07-02T14:58:31.542Z,0.80
2018-07-02T15:01:00.496Z,0.80
2018-07-02T15:03:29.341Z,0.63
2018-07-02T15:05:58.394Z,0.70
2018-07-02T15:08:26.704Z,1.17
2018-07-02T15:10:54.924Z,1.20
2018-07-02T15:13:23.153Z,0.70
2018-07-02T15:15:51.667Z,1.10
2018-07-02T15:18:20.017Z,1.13
2018-07-02T15:20:48.304Z,0.83
2018-07-02T15:23:16.593Z,1.10
2018-07-02T15:25:44.886Z,0.93
2018-07-02T15:28:13.313Z,1.00
2018-07-02T15:30:42.320Z,2.57
2018-07-02T15:33:10.600Z,1.00
2018-07-02T15:35:39.106Z,1.20
2018-07-02T15:38:07.414Z,1.27
2018-07-02T15:40:35.733Z,3.07
2018-07-02T15:43:04.273Z,1.30
2018-07-02T15:45:32.906Z,1.07
2018-07-02T15:48:01.663Z,1.20
2018-07-02T15:50:30.006Z,0.80
2018-07-02T15:52:58.459Z,1.10
2018-07-02T15:55:27.040Z,0.97
2018-07-02T15:57:55.350Z,1.00
2018-07-02T16:00:23.790Z,1.10
2018-07-02T16:02:52.059Z,0.70
2018-07-02T16:05:20.275Z,1.00
2018-07-02T16:07:48.551Z,1.73
2018-07-02T16:10:16.722Z,1.50
2018-07-02T16:12:45.087Z,1.47
2018-07-02T16:15:15.731Z,1.60
2018-07-02T16:17:45.946Z,1.50
2018-07-02T16:20:14.330Z,0.90
2018-07-02T16:22:44.484Z,0.70
2018-07-02T16:25:13.854Z,1.03
2018-07-02T16:27:42.389Z,1.00
2018-07-02T16:30:10.890Z,1.10
2018-07-02T16:32:40.956Z,0.90
2018-07-02T16:35:09.183Z,1.10
2018-07-02T16:37:37.805Z,0.80
2018-07-02T16:40:06.549Z,0.93
2018-07-02T16:42:35.292Z,1.00
2018-07-02T16:45:03.836Z,1.00
2018-07-02T16:47:31.991Z,1.50
2018-07-02T16:50:00.459Z,1.47
2018-07-02T16:52:29.016Z,0.73
2018-07-02T16:54:57.632Z,0.80
2018-07-02T16:57:26.245Z,0.70
2018-07-02T16:59:55.706Z,0.80
2018-07-02T17:02:24.087Z,1.00
2018-07-02T17:04:53.824Z,0.77
2018-07-02T17:07:22.243Z,0.77
2018-07-02T17:09:51.762Z,1.07
2018-07-02T17:12:20.270Z,0.83
2018-07-02T17:14:49.442Z,0.90
2018-07-02T17:17:18.559Z,0.73
2018-07-02T17:19:48.141Z,0.63
2018-07-02T17:22:16.525Z,0.80
2018-07-02T17:24:44.818Z,1.00
2018-07-02T17:27:13.172Z,1.20
2018-07-02T17:29:41.524Z,1.00
2018-07-02T17:32:10.779Z,0.93
2018-07-02T17:34:39.120Z,1.00
2018-07-02T17:37:07.583Z,1.10
2018-07-02T17:39:40.745Z,0.70
2018-07-02T17:42:09.315Z,0.70
2018-07-02T17:44:37.662Z,0.80
2018-07-02T17:47:06.624Z,0.90
2018-07-02T17:49:34.866Z,0.60
2018-07-02T17:52:04.157Z,0.70
2018-07-02T17:54:32.503Z,0.67
2018-07-02T17:57:01.038Z,0.90
2018-07-02T17:59:30.417Z,0.80
2018-07-02T18:01:59.652Z,0.80
2018-07-02T18:04:31.797Z,0.60
2018-07-02T18:07:00.812Z,0.67
2018-07-02T18:09:30.500Z,0.90
2018-07-02T18:12:00.273Z,0.90
2018-07-02T18:14:30.192Z,0.80
2018-07-02T18:17:06.200Z,0.60
2018-07-02T18:19:40.123Z,0.70
2018-07-02T18:22:10.429Z,0.50
2018-07-02T18:24:40.194Z,0.70
2018-07-02T18:27:13.203Z,0.57
2018-07-02T18:29:45.876Z,0.60
2018-07-02T18:32:14.931Z,0.90
2018-07-02T18:34:43.436Z,0.57
2018-07-02T18:37:11.702Z,0.70
2018-07-02T18:39:40.008Z,0.80
2018-07-02T18:42:08.569Z,0.70
2018-07-02T18:44:37.491Z,0.70
2018-07-02T18:47:05.831Z,0.80
2018-07-02T18:49:34.290Z,0.53
2018-07-02T18:52:03.432Z,0.50
2018-07-02T18:54:31.933Z,0.80
2018-07-02T18:57:00.319Z,0.60
2018-07-02T18:59:30.167Z,0.73
2018-07-02T19:02:02.827Z,0.80
2018-07-02T19:04:31.182Z,1.07
2018-07-02T19:07:00.604Z,0.90
2018-07-02T19:09:29.005Z,0.90
2018-07-02T19:11:58.659Z,0.60
2018-07-02T19:14:27.883Z,1.00
2018-07-02T19:16:57.022Z,0.90
2018-07-02T19:19:25.477Z,0.73
2018-07-02T19:21:54.457Z,1.10
2018-07-02T19:24:23.895Z,1.10
2018-07-02T19:26:52.329Z,1.03
2018-07-02T19:29:22.103Z,1.23
2018-07-02T19:31:51.247Z,1.07
2018-07-02T19:34:19.796Z,0.90
2018-07-02T19:36:52.952Z,0.63
2018-07-02T19:39:22.105Z,0.73
2018-07-02T19:41:51.125Z,0.90
2018-07-02T19:44:19.610Z,1.07
2018-07-02T19:46:48.094Z,0.73
2018-07-02T19:49:16.327Z,0.87
2018-07-02T19:51:44.623Z,0.90
2018-07-02T19:54:12.997Z,0.93
2018-07-02T19:56:41.448Z,0.80
2018-07-02T19:59:10.001Z,1.13
2018-07-02T20:01:43.192Z,0.60
2018-07-02T20:04:11.674Z,0.77
2018-07-02T20:06:40.824Z,0.70
2018-07-02T20:09:09.207Z,0.80
2018-07-02T20:11:37.712Z,0.80
2018-07-02T20:14:06.169Z,1.00
2018-07-02T20:16:34.438Z,0.73
2018-07-02T20:19:02.712Z,0.83
2018-07-02T20:21:31.008Z,0.80
2018-07-02T20:24:00.111Z,0.73
2018-07-02T20:26:28.978Z,0.70
2018-07-02T20:28:57.291Z,0.73
2018-07-02T20:31:25.688Z,0.87
2018-07-02T20:33:53.882Z,0.80
2018-07-02T20:36:22.254Z,0.80
2018-07-02T20:38:50.675Z,0.70
2018-07-02T20:41:20.419Z,0.70
2018-07-02T20:43:48.688Z,1.23
2018-07-02T20:46:17.002Z,0.57
2018-07-02T20:48:45.301Z,1.00
2018-07-02T20:51:14.714Z,0.73
2018-07-02T20:53:43.244Z,0.90
2018-07-02T20:56:12.409Z,0.70
2018-07-02T20:58:40.898Z,0.80
2018-07-02T21:01:10.226Z,0.70
2018-07-02T21:03:39.215Z,0.60
2018-07-02T21:06:07.506Z,0.80
2018-07-02T21:08:35.815Z,0.87
2018-07-02T21:11:04.038Z,0.80
2018-07-02T21:13:32.296Z,0.70
2018-07-02T21:16:01.684Z,0.90
2018-07-02T21:18:30.049Z,0.60
2018-07-02T21:20:58.425Z,0.90
2018-07-02T21:23:26.829Z,0.80
2018-07-02T21:25:57.162Z,1.23
2018-07-02T21:28:26.665Z,0.90
2018-07-02T21:30:54.901Z,0.90
2018-07-02T21:33:23.288Z,0.80
2018-07-02T21:35:51.720Z,1.00
2018-07-02T21:38:20.133Z,0.83
2018-07-02T21:40:48.288Z,0.90
2018-07-02T21:43:16.636Z,1.07
2018-07-02T21:45:45.105Z,0.60
2018-07-02T21:48:14.545Z,1.20
2018-07-02T21:50:43.022Z,0.80
2018-07-02T21:53:11.540Z,0.80
2018-07-02T21:55:40.637Z,0.80
2018-07-02T21:58:13.378Z,0.87
2018-07-02T22:00:44.739Z,0.67
2018-07-02T22:03:13.289Z,0.73
2018-07-02T22:05:41.801Z,0.70
2018-07-02T22:08:11.090Z,0.90
2018-07-02T22:10:39.696Z,0.60
2018-07-02T22:13:08.267Z,0.63
2018-07-02T22:15:36.722Z,0.70
2018-07-02T22:18:05.282Z,0.50
2018-07-02T22:20:33.680Z,0.63
2018-07-02T22:23:02.058Z,0.63
2018-07-02T22:25:30.455Z,0.50
2018-07-02T22:27:58.890Z,0.47
2018-07-02T22:30:28.005Z,0.40
2018-07-02T22:32:56.244Z,0.50
2018-07-02T22:35:24.532Z,0.37
2018-07-02T22:37:52.962Z,0.47
2018-07-02T22:40:21.814Z,0.70
2018-07-02T22:42:50.258Z,0.50
2018-07-02T22:45:19.114Z,0.40
2018-07-02T22:47:47.563Z,0.50
2018-07-02T22:50:15.866Z,0.50
2018-07-02T22:52:44.280Z,0.80
2018-07-02T22:55:12.605Z,0.50
2018-07-02T22:57:41.135Z,0.40
2018-07-02T23:00:09.674Z,0.30
2018-07-02T23:02:42.474Z,0.20
2018-07-02T23:05:10.709Z,0.43
2018-07-02T23:07:38.984Z,0.37
2018-07-02T23:10:07.769Z,0.40
2018-07-02T23:12:36.035Z,0.50
2018-07-02T23:15:04.627Z,0.40
2018-07-02T23:17:32.901Z,0.30
2018-07-02T23:20:01.185Z,0.40
2018-07-02T23:23:05.138Z,0.30
2018-07-02T23:25:33.433Z,0.47
2018-07-02T23:28:02.169Z,0.37
2018-07-02T23:30:31.754Z,0.60
2018-07-02T23:33:00.372Z,0.60
2018-07-02T23:35:29.479Z,0.23
2018-07-02T23:37:57.801Z,0.30
2018-07-02T23:40:26.543Z,0.43
2018-07-02T23:42:55.022Z,0.50
2018-07-02T23:45:25.650Z,0.40
2018-07-02T23:47:54.088Z,0.53
2018-07-02T23:50:22.987Z,0.20
2018-07-02T23:52:51.394Z,0.40
2018-07-02T23:55:19.643Z,0.30
2018-07-02T23:57:48.050Z,0.30
